createdAt,value
2023-02-20T00:00:07.611Z,26.38
2023-02-20T00:01:07.615Z,26.36
2023-02-20T00:02:07.785Z,26.38
2023-02-20T00:03:07.653Z,26.38
2023-02-20T00:04:07.684Z,26.35
2023-02-20T00:05:07.703Z,26.38
2023-02-20T00:06:07.743Z,26.39
2023-02-20T00:07:07.685Z,26.39
2023-02-20T00:08:07.719Z,26.39
2023-02-20T00:09:07.759Z,26.38
2023-02-20T00:10:07.780Z,26.39
2023-02-20T00:11:07.803Z,26.36
2023-02-20T00:12:07.774Z,26.39
2023-02-20T00:13:07.802Z,26.38
2023-02-20T00:14:07.838Z,26.38
2023-02-20T00:15:07.837Z,26.38
2023-02-20T00:16:07.919Z,26.38
2023-02-20T00:17:07.869Z,26.38
2023-02-20T00:18:07.865Z,26.38
2023-02-20T00:19:07.910Z,26.40
2023-02-20T00:20:07.938Z,26.36
2023-02-20T00:21:07.920Z,26.38
2023-02-20T00:22:07.946Z,26.38
2023-02-20T00:23:08.016Z,26.36
2023-02-20T00:24:08.017Z,26.38
2023-02-20T00:25:08.047Z,26.40
2023-02-20T00:26:08.048Z,26.36
2023-02-20T00:27:08.063Z,26.36
2023-02-20T00:28:08.100Z,26.39
2023-02-20T00:29:08.112Z,26.38
2023-02-20T00:30:08.422Z,26.38
2023-02-20T00:31:08.316Z,26.39
2023-02-20T00:32:08.386Z,26.39
2023-02-20T00:33:08.174Z,26.39
2023-02-20T00:34:08.218Z,26.39
2023-02-20T00:35:08.253Z,26.40
2023-02-20T00:36:08.267Z,26.39
2023-02-20T00:37:08.266Z,26.38
2023-02-20T00:38:08.249Z,26.40
2023-02-20T00:39:08.287Z,26.39
2023-02-20T00:40:08.303Z,26.39
2023-02-20T00:41:08.329Z,26.39
2023-02-20T00:42:08.317Z,26.40
2023-02-20T00:44:08.367Z,26.40
2023-02-20T00:45:08.406Z,26.38
2023-02-20T00:46:08.445Z,26.39
2023-02-20T00:47:08.414Z,26.40
2023-02-20T00:48:08.413Z,26.40
2023-02-20T00:49:08.464Z,26.42
2023-02-20T00:50:08.477Z,26.42
2023-02-20T00:51:08.495Z,26.40
2023-02-20T00:52:08.508Z,26.42
2023-02-20T00:53:08.517Z,26.39
2023-02-20T00:54:08.545Z,26.39
2023-02-20T00:55:08.568Z,26.39
2023-02-20T00:56:08.580Z,26.42
2023-02-20T00:57:08.605Z,26.39
2023-02-20T00:58:08.609Z,26.42
2023-02-20T00:59:08.611Z,26.40
2023-02-20T01:00:08.677Z,26.39
2023-02-20T01:01:08.652Z,26.40
2023-02-20T01:02:08.704Z,26.42
2023-02-20T01:03:08.712Z,26.40
2023-02-20T01:04:08.762Z,26.42
2023-02-20T01:06:08.822Z,26.40
2023-02-20T01:07:08.781Z,26.39
2023-02-20T01:08:08.840Z,26.39
2023-02-20T01:09:08.820Z,26.40
2023-02-20T01:10:08.863Z,26.42
2023-02-20T01:11:08.858Z,26.40
2023-02-20T01:14:08.894Z,26.40
2023-02-20T01:15:08.935Z,26.42
2023-02-20T01:16:08.937Z,26.42
2023-02-20T01:17:08.994Z,26.39
2023-02-20T01:18:08.989Z,26.42
2023-02-20T01:19:08.999Z,26.42
2023-02-20T01:20:09.020Z,26.43
2023-02-20T01:21:09.044Z,26.42
2023-02-20T01:22:09.072Z,26.42
2023-02-20T01:23:09.040Z,26.42
2023-02-20T01:24:09.062Z,26.42
2023-02-20T01:25:09.100Z,26.42
2023-02-20T01:26:09.113Z,26.42
2023-02-20T01:27:09.154Z,26.40
2023-02-20T01:28:09.187Z,26.45
2023-02-20T01:29:09.198Z,26.43
2023-02-20T01:30:09.290Z,26.43
2023-02-20T01:31:09.346Z,26.43
2023-02-20T01:32:09.222Z,26.40
2023-02-20T01:33:09.273Z,26.43
2023-02-20T01:34:09.282Z,26.42
2023-02-20T01:35:09.308Z,26.43
2023-02-20T01:36:09.276Z,26.42
2023-02-20T01:37:09.326Z,26.43
2023-02-20T01:38:09.346Z,26.42
2023-02-20T01:39:09.343Z,26.43
2023-02-20T01:40:09.364Z,26.43
2023-02-20T01:41:09.336Z,26.42
2023-02-20T01:42:09.364Z,26.43
2023-02-20T01:43:09.356Z,26.43
2023-02-20T01:44:09.379Z,26.42
2023-02-20T01:45:09.454Z,26.42
2023-02-20T01:46:09.635Z,26.43
2023-02-20T01:47:09.485Z,26.43
2023-02-20T01:48:09.470Z,26.43
2023-02-20T01:49:09.472Z,26.43
2023-02-20T01:50:09.527Z,26.43
2023-02-20T01:51:09.548Z,26.45
2023-02-20T01:52:09.564Z,26.45
2023-02-20T01:53:09.527Z,26.46
2023-02-20T01:54:09.570Z,26.46
2023-02-20T01:55:09.629Z,26.45
2023-02-20T01:56:09.931Z,26.46
2023-02-20T01:57:09.611Z,26.45
2023-02-20T01:58:09.658Z,26.49
2023-02-20T01:59:09.641Z,26.47
2023-02-20T02:00:09.647Z,26.49
2023-02-20T02:01:09.774Z,26.47
2023-02-20T02:02:09.758Z,26.47
2023-02-20T02:03:09.731Z,26.49
2023-02-20T02:04:09.730Z,26.52
2023-02-20T02:05:09.733Z,26.52
2023-02-20T02:06:09.908Z,26.52
2023-02-20T02:07:09.733Z,26.56
2023-02-20T02:08:09.742Z,26.55
2023-02-20T02:09:09.722Z,26.55
2023-02-20T02:10:09.740Z,26.57
2023-02-20T02:11:09.789Z,26.62
2023-02-20T02:12:09.760Z,26.63
2023-02-20T02:13:09.706Z,26.62
2023-02-20T02:14:09.728Z,26.66
2023-02-20T02:15:09.730Z,26.66
2023-02-20T02:16:10.049Z,26.66
2023-02-20T02:17:09.695Z,26.69
2023-02-20T02:18:09.716Z,26.70
2023-02-20T02:19:09.736Z,26.72
2023-02-20T02:20:09.734Z,26.70
2023-02-20T02:21:09.719Z,26.72
2023-02-20T02:22:09.773Z,26.72
2023-02-20T02:23:09.755Z,26.73
2023-02-20T02:24:09.778Z,26.75
2023-02-20T02:25:09.831Z,26.76
2023-02-20T02:26:09.960Z,26.77
2023-02-20T02:27:09.853Z,26.79
2023-02-20T02:28:09.856Z,26.80
2023-02-20T02:29:09.893Z,26.82
2023-02-20T02:30:09.976Z,26.80
2023-02-20T02:31:10.121Z,26.82
2023-02-20T02:32:10.061Z,26.83
2023-02-20T02:33:10.085Z,26.83
2023-02-20T02:34:10.172Z,26.83
2023-02-20T02:35:10.190Z,26.87
2023-02-20T02:36:10.453Z,26.85
2023-02-20T02:37:10.307Z,26.87
2023-02-20T02:38:10.352Z,26.86
2023-02-20T02:39:10.447Z,26.87
2023-02-20T02:40:10.493Z,26.89
2023-02-20T02:41:10.550Z,26.87
2023-02-20T02:42:10.622Z,26.86
2023-02-20T02:43:10.663Z,26.86
2023-02-20T02:44:10.735Z,26.86
2023-02-20T02:45:10.786Z,26.87
2023-02-20T02:46:11.184Z,26.89
2023-02-20T02:47:10.906Z,26.91
2023-02-20T02:48:10.984Z,26.91
2023-02-20T02:49:11.042Z,26.90
2023-02-20T02:50:11.102Z,26.94
2023-02-20T02:51:11.161Z,26.93
2023-02-20T02:52:11.179Z,26.94
2023-02-20T02:53:11.265Z,26.94
2023-02-20T02:54:11.356Z,26.96
2023-02-20T02:55:11.392Z,26.93
2023-02-20T02:56:11.652Z,26.93
2023-02-20T02:57:11.533Z,26.93
2023-02-20T02:58:11.543Z,26.94
2023-02-20T02:59:11.633Z,26.93
2023-02-20T03:00:11.702Z,26.96
2023-02-20T03:01:11.782Z,26.96
2023-02-20T03:02:11.850Z,26.96
2023-02-20T03:03:11.862Z,26.96
2023-02-20T03:04:11.861Z,26.93
2023-02-20T03:05:12.017Z,26.94
2023-02-20T03:06:12.401Z,26.96
2023-02-20T03:07:12.033Z,26.96
2023-02-20T03:08:12.089Z,26.97
2023-02-20T03:09:12.168Z,26.97
2023-02-20T03:10:12.202Z,27.00
2023-02-20T03:11:12.248Z,26.99
2023-02-20T03:12:12.301Z,26.96
2023-02-20T03:13:12.360Z,26.99
2023-02-20T03:14:12.430Z,26.96
2023-02-20T03:15:12.498Z,26.99
2023-02-20T03:16:12.915Z,26.96
2023-02-20T03:17:12.568Z,27.03
2023-02-20T03:18:12.615Z,27.00
2023-02-20T03:19:12.690Z,27.00
2023-02-20T03:20:12.719Z,27.00
2023-02-20T03:21:12.818Z,26.99
2023-02-20T03:22:12.805Z,27.01
2023-02-20T03:23:12.878Z,27.00
2023-02-20T03:24:12.926Z,26.99
2023-02-20T03:25:12.962Z,27.01
2023-02-20T03:26:13.303Z,27.04
2023-02-20T03:27:13.067Z,27.03
2023-02-20T03:28:13.108Z,27.04
2023-02-20T03:29:13.162Z,27.03
2023-02-20T03:30:13.222Z,27.04
2023-02-20T03:31:13.323Z,27.06
2023-02-20T03:32:13.383Z,27.04
2023-02-20T03:33:13.360Z,27.04
2023-02-20T03:34:13.427Z,27.06
2023-02-20T03:35:13.463Z,27.06
2023-02-20T03:36:13.895Z,27.04
2023-02-20T03:37:13.534Z,27.07
2023-02-20T03:38:13.576Z,27.07
2023-02-20T03:39:13.663Z,27.08
2023-02-20T03:40:13.678Z,27.07
2023-02-20T03:41:13.739Z,27.08
2023-02-20T03:42:13.867Z,27.08
2023-02-20T03:43:13.838Z,27.08
2023-02-20T03:44:13.885Z,27.10
2023-02-20T03:45:13.911Z,27.11
2023-02-20T03:46:14.286Z,27.10
2023-02-20T03:47:14.048Z,27.11
2023-02-20T03:48:14.049Z,27.11
2023-02-20T03:49:14.137Z,27.14
2023-02-20T03:50:14.166Z,27.13
2023-02-20T03:51:14.201Z,27.17
2023-02-20T03:52:14.261Z,27.13
2023-02-20T03:53:14.332Z,27.15
2023-02-20T03:54:14.353Z,27.14
2023-02-20T03:55:14.395Z,27.13
2023-02-20T03:56:14.710Z,27.13
2023-02-20T03:57:14.508Z,27.14
2023-02-20T03:58:14.556Z,27.14
2023-02-20T03:59:14.604Z,27.17
2023-02-20T04:00:14.680Z,27.17
2023-02-20T04:01:14.745Z,27.20
2023-02-20T04:02:14.763Z,27.17
2023-02-20T04:03:14.836Z,27.17
2023-02-20T04:04:14.860Z,27.15
2023-02-20T04:05:14.925Z,27.15
2023-02-20T04:06:15.250Z,27.17
2023-02-20T04:07:15.025Z,27.14
2023-02-20T04:08:15.127Z,27.20
2023-02-20T04:09:15.150Z,27.20
2023-02-20T04:10:15.213Z,27.17
2023-02-20T04:11:15.268Z,27.18
2023-02-20T04:12:15.308Z,27.18
2023-02-20T04:13:15.376Z,27.15
2023-02-20T04:14:15.416Z,27.15
2023-02-20T04:15:15.476Z,27.18
2023-02-20T04:16:15.804Z,27.15
2023-02-20T04:17:15.576Z,27.15
2023-02-20T04:18:15.610Z,27.17
2023-02-20T04:19:15.706Z,27.17
2023-02-20T04:20:15.738Z,27.17
2023-02-20T04:21:15.840Z,27.15
2023-02-20T04:22:15.844Z,27.17
2023-02-20T04:23:15.935Z,27.15
2023-02-20T04:24:15.985Z,27.15
2023-02-20T04:25:16.046Z,27.15
2023-02-20T04:26:16.078Z,27.15
2023-02-20T04:27:16.140Z,27.15
2023-02-20T04:28:16.151Z,27.15
2023-02-20T04:29:16.249Z,27.14
2023-02-20T04:30:16.342Z,27.15
2023-02-20T04:31:16.477Z,27.15
2023-02-20T04:32:16.393Z,27.14
2023-02-20T04:33:16.481Z,27.14
2023-02-20T04:34:16.514Z,27.14
2023-02-20T04:35:16.565Z,27.14
2023-02-20T04:36:16.636Z,27.14
2023-02-20T04:37:16.663Z,27.15
2023-02-20T04:38:16.735Z,27.14
2023-02-20T04:39:16.797Z,27.14
2023-02-20T04:40:16.860Z,27.14
2023-02-20T04:41:16.902Z,27.14
2023-02-20T04:42:16.975Z,27.15
2023-02-20T04:43:17.017Z,27.14
2023-02-20T04:44:17.066Z,27.14
2023-02-20T04:45:17.131Z,27.14
2023-02-20T04:46:17.222Z,27.13
2023-02-20T04:47:17.241Z,27.14
2023-02-20T04:48:17.300Z,27.14
2023-02-20T04:49:17.360Z,27.13
2023-02-20T04:50:17.412Z,27.13
2023-02-20T04:51:17.486Z,27.14
2023-02-20T04:52:17.535Z,27.13
2023-02-20T04:53:17.582Z,27.14
2023-02-20T04:54:17.651Z,27.15
2023-02-20T04:55:17.705Z,27.14
2023-02-20T04:56:17.797Z,27.15
2023-02-20T04:57:17.822Z,27.14
2023-02-20T04:58:17.890Z,27.14
2023-02-20T04:59:17.929Z,27.15
2023-02-20T05:00:17.992Z,27.15
2023-02-20T05:01:18.136Z,27.14
2023-02-20T05:02:18.131Z,27.14
2023-02-20T05:03:18.205Z,27.14
2023-02-20T05:04:18.238Z,27.13
2023-02-20T05:05:18.344Z,27.14
2023-02-20T05:06:18.355Z,27.14
2023-02-20T05:07:18.434Z,27.17
2023-02-20T05:08:18.466Z,27.13
2023-02-20T05:09:18.531Z,27.14
2023-02-20T05:10:18.573Z,27.15
2023-02-20T05:11:18.642Z,27.15
2023-02-20T05:12:18.691Z,27.14
2023-02-20T05:13:18.763Z,27.15
2023-02-20T05:14:18.789Z,27.14
2023-02-20T05:15:18.869Z,27.14
2023-02-20T05:16:18.939Z,27.14
2023-02-20T05:17:18.985Z,27.17
2023-02-20T05:18:19.020Z,27.14
2023-02-20T05:19:19.068Z,27.15
2023-02-20T05:20:19.114Z,27.14
2023-02-20T05:21:19.173Z,27.15
2023-02-20T05:22:19.262Z,27.15
2023-02-20T05:23:19.310Z,27.15
2023-02-20T05:24:19.361Z,27.15
2023-02-20T05:25:19.396Z,27.14
2023-02-20T05:26:19.465Z,27.15
2023-02-20T05:27:19.539Z,27.14
2023-02-20T05:28:19.570Z,27.15
2023-02-20T05:29:19.598Z,27.15
2023-02-20T05:30:19.687Z,27.17
2023-02-20T05:31:19.812Z,27.15
2023-02-20T05:32:19.825Z,27.14
2023-02-20T05:33:19.839Z,27.15
2023-02-20T05:34:19.884Z,27.17
2023-02-20T05:35:19.929Z,27.15
2023-02-20T05:36:19.988Z,27.15
2023-02-20T05:37:20.033Z,27.15
2023-02-20T05:38:20.120Z,27.18
2023-02-20T05:39:20.909Z,27.15
2023-02-20T05:40:20.226Z,27.18
2023-02-20T05:41:20.278Z,27.18
2023-02-20T05:42:20.319Z,27.18
2023-02-20T05:43:20.389Z,27.17
2023-02-20T05:44:20.422Z,27.18
2023-02-20T05:45:20.507Z,27.17
2023-02-20T05:46:20.619Z,27.17
2023-02-20T05:47:20.630Z,27.18
2023-02-20T05:48:20.660Z,27.18
2023-02-20T05:49:20.705Z,27.17
2023-02-20T05:50:20.744Z,27.18
2023-02-20T05:51:20.825Z,27.18
2023-02-20T05:52:20.868Z,27.20
2023-02-20T05:53:20.952Z,27.15
2023-02-20T05:54:20.985Z,27.17
2023-02-20T05:55:21.050Z,27.18
2023-02-20T05:56:21.117Z,27.17
2023-02-20T05:57:21.137Z,27.17
2023-02-20T05:58:21.205Z,27.17
2023-02-20T05:59:21.245Z,27.18
2023-02-20T06:01:40.395Z,27.14
2023-02-20T06:02:40.389Z,27.15
2023-02-20T06:03:40.493Z,27.17
2023-02-20T06:04:40.456Z,27.17
2023-02-20T06:05:40.401Z,27.18
2023-02-20T06:06:40.405Z,27.18
2023-02-20T06:07:40.358Z,27.15
2023-02-20T06:08:40.374Z,27.18
2023-02-20T06:09:40.358Z,27.20
2023-02-20T06:10:40.360Z,27.21
2023-02-20T06:11:40.353Z,27.21
2023-02-20T06:12:40.325Z,27.18
2023-02-20T06:13:40.326Z,27.18
2023-02-20T06:14:40.354Z,27.21
2023-02-20T06:15:40.344Z,27.21
2023-02-20T06:16:40.329Z,27.21
2023-02-20T06:17:40.349Z,27.20
2023-02-20T06:18:40.315Z,27.18
2023-02-20T06:19:40.291Z,27.21
2023-02-20T06:20:40.325Z,27.21
2023-02-20T06:21:40.292Z,27.20
2023-02-20T06:22:40.269Z,27.18
2023-02-20T06:23:40.244Z,27.23
2023-02-20T06:24:40.237Z,27.20
2023-02-20T06:25:40.272Z,27.21
2023-02-20T06:26:40.290Z,27.23
2023-02-20T06:27:40.275Z,27.21
2023-02-20T06:28:40.259Z,27.21
2023-02-20T06:29:40.257Z,27.23
2023-02-20T06:30:40.377Z,27.23
2023-02-20T06:31:40.696Z,27.23
2023-02-20T06:32:40.208Z,27.23
2023-02-20T06:33:40.215Z,27.24
2023-02-20T06:34:40.201Z,27.21
2023-02-20T06:35:40.266Z,27.21
2023-02-20T06:36:40.622Z,27.17
2023-02-20T06:37:41.187Z,27.15
2023-02-20T06:38:40.268Z,27.13
2023-02-20T06:39:41.049Z,27.13
2023-02-20T06:40:40.242Z,27.11
2023-02-20T06:41:40.603Z,27.11
2023-02-20T06:42:40.409Z,27.13
2023-02-20T06:43:40.495Z,27.11
2023-02-20T06:45:40.496Z,27.10
2023-02-20T06:46:40.798Z,27.14
2023-02-20T06:47:40.428Z,27.18
2023-02-20T06:48:40.430Z,27.18
2023-02-20T06:49:40.491Z,27.23
2023-02-20T06:50:40.486Z,27.23
2023-02-20T06:51:40.762Z,27.30
2023-02-20T06:52:40.466Z,27.33
2023-02-20T06:53:41.045Z,27.37
2023-02-20T06:54:40.461Z,27.41
2023-02-20T06:55:40.457Z,27.45
2023-02-20T06:56:40.568Z,27.47
2023-02-20T06:57:40.570Z,27.50
2023-02-20T06:58:40.577Z,27.54
2023-02-20T06:59:40.637Z,27.55
2023-02-20T07:00:40.644Z,27.58
2023-02-20T07:01:40.763Z,27.62
2023-02-20T07:03:40.694Z,27.65
2023-02-20T07:04:40.767Z,27.66
2023-02-20T07:05:40.741Z,27.68
2023-02-20T07:06:40.777Z,27.65
2023-02-20T07:07:40.796Z,27.69
2023-02-20T07:08:40.841Z,27.68
2023-02-20T07:09:42.016Z,27.71
2023-02-20T07:10:40.828Z,27.69
2023-02-20T07:11:40.817Z,27.71
2023-02-20T07:12:41.134Z,27.68
2023-02-20T07:13:40.821Z,27.61
2023-02-20T07:14:40.803Z,27.60
2023-02-20T07:15:40.827Z,27.54
2023-02-20T07:16:40.778Z,27.55
2023-02-20T07:17:42.164Z,27.54
2023-02-20T07:18:40.778Z,27.54
2023-02-20T07:19:40.766Z,27.55
2023-02-20T07:20:40.769Z,27.55
2023-02-20T07:21:40.750Z,27.60
2023-02-20T07:22:40.791Z,27.61
2023-02-20T07:23:40.766Z,27.64
2023-02-20T07:24:40.722Z,27.68
2023-02-20T07:25:40.743Z,27.68
2023-02-20T07:26:40.749Z,27.72
2023-02-20T07:27:40.783Z,27.72
2023-02-20T07:28:40.689Z,27.77
2023-02-20T07:29:40.693Z,27.78
2023-02-20T07:30:40.844Z,27.82
2023-02-20T07:31:40.779Z,27.81
2023-02-20T07:32:40.698Z,27.85
2023-02-20T07:33:40.654Z,27.87
2023-02-20T07:34:42.101Z,27.89
2023-02-20T07:35:40.662Z,27.87
2023-02-20T07:36:40.640Z,27.88
2023-02-20T07:37:41.146Z,27.87
2023-02-20T07:38:40.628Z,27.87
2023-02-20T07:39:40.642Z,27.88
2023-02-20T07:40:40.631Z,27.87
2023-02-20T07:41:40.612Z,27.87
2023-02-20T07:42:40.659Z,27.84
2023-02-20T07:43:40.621Z,27.81
2023-02-20T07:44:40.657Z,27.71
2023-02-20T07:45:40.629Z,27.64
2023-02-20T07:46:40.667Z,27.58
2023-02-20T07:47:40.643Z,27.55
2023-02-20T07:48:40.613Z,27.55
2023-02-20T07:49:40.579Z,27.51
2023-02-20T07:50:40.610Z,27.52
2023-02-20T07:51:40.540Z,27.54
2023-02-20T07:52:40.538Z,27.52
2023-02-20T07:53:40.564Z,27.54
2023-02-20T07:54:40.543Z,27.55
2023-02-20T07:55:40.601Z,27.58
2023-02-20T07:56:40.534Z,27.60
2023-02-20T07:57:40.519Z,27.60
2023-02-20T07:58:40.523Z,27.60
2023-02-20T07:59:40.523Z,27.62
2023-02-20T08:00:40.512Z,27.68
2023-02-20T08:01:40.557Z,27.69
2023-02-20T08:02:40.490Z,27.71
2023-02-20T08:03:40.485Z,27.72
2023-02-20T08:04:40.474Z,27.73
2023-02-20T08:05:49.124Z,27.78
2023-02-20T08:06:41.494Z,27.79
2023-02-20T08:07:40.479Z,27.82
2023-02-20T08:08:40.455Z,27.85
2023-02-20T08:09:40.441Z,27.87
2023-02-20T08:10:40.438Z,27.84
2023-02-20T08:11:40.400Z,27.87
2023-02-20T08:12:40.413Z,27.87
2023-02-20T08:13:40.432Z,27.85
2023-02-20T08:14:40.435Z,27.87
2023-02-20T08:15:40.430Z,27.88
2023-02-20T08:16:40.660Z,27.87
2023-02-20T08:17:46.394Z,27.88
2023-02-20T08:18:41.418Z,27.82
2023-02-20T08:19:40.391Z,27.81
2023-02-20T08:20:40.352Z,27.78
2023-02-20T08:21:41.083Z,27.69
2023-02-20T08:22:41.834Z,27.65
2023-02-20T08:23:40.399Z,27.64
2023-02-20T08:24:40.339Z,27.58
2023-02-20T08:25:40.357Z,27.55
2023-02-20T08:26:40.373Z,27.51
2023-02-20T08:27:40.337Z,27.45
2023-02-20T08:28:40.434Z,27.41
2023-02-20T08:29:40.456Z,27.40
2023-02-20T08:30:40.620Z,27.37
2023-02-20T08:31:40.710Z,27.36
2023-02-20T08:32:40.750Z,27.36
2023-02-20T08:33:41.169Z,27.28
2023-02-20T08:34:40.771Z,27.27
2023-02-20T08:35:40.846Z,27.31
2023-02-20T08:36:40.938Z,27.31
2023-02-20T08:37:40.956Z,27.34
2023-02-20T08:38:41.223Z,27.34
2023-02-20T08:39:41.068Z,27.36
2023-02-20T08:40:41.108Z,27.33
2023-02-20T08:41:41.225Z,27.30
2023-02-20T08:42:41.264Z,27.31
2023-02-20T08:43:41.711Z,27.31
2023-02-20T08:44:41.645Z,27.27
2023-02-20T08:45:41.520Z,27.28
2023-02-20T08:46:41.483Z,27.27
2023-02-20T08:56:42.110Z,27.57
2023-02-20T08:57:42.076Z,27.62
2023-02-20T08:58:42.183Z,27.66
2023-02-20T08:59:42.162Z,27.69
2023-02-20T09:00:42.193Z,27.72
2023-02-20T09:01:42.202Z,27.73
2023-02-20T09:02:42.259Z,27.78
2023-02-20T09:03:42.255Z,27.81
2023-02-20T09:04:42.380Z,27.79
2023-02-20T09:05:42.305Z,27.79
2023-02-20T09:06:42.342Z,27.79
2023-02-20T09:07:42.383Z,27.77
2023-02-20T09:08:42.428Z,27.73
2023-02-20T09:09:42.683Z,27.71
2023-02-20T09:10:42.480Z,27.71
2023-02-20T09:11:42.513Z,27.66
2023-02-20T09:12:42.613Z,27.68
2023-02-20T09:13:42.632Z,27.66
2023-02-20T09:14:42.671Z,27.69
2023-02-20T09:15:42.734Z,27.65
2023-02-20T09:16:42.780Z,27.62
2023-02-20T09:17:42.840Z,27.61
2023-02-20T09:18:42.866Z,27.62
2023-02-20T09:19:43.232Z,27.60
2023-02-20T09:20:42.986Z,27.60
2023-02-20T09:21:43.036Z,27.58
2023-02-20T09:22:43.073Z,27.57
2023-02-20T09:23:43.111Z,27.60
2023-02-20T09:24:43.193Z,27.61
2023-02-20T09:25:43.207Z,27.61
2023-02-20T09:26:43.252Z,27.64
2023-02-20T09:27:43.289Z,27.62
2023-02-20T09:28:43.352Z,27.65
2023-02-20T09:29:43.436Z,27.64
2023-02-20T09:30:43.446Z,27.62
2023-02-20T09:31:43.589Z,27.61
2023-02-20T09:32:43.539Z,27.58
2023-02-20T09:33:43.609Z,27.57
2023-02-20T09:34:43.662Z,27.55
2023-02-20T09:35:44.704Z,27.52
2023-02-20T09:36:43.784Z,27.51
2023-02-20T09:37:43.821Z,27.50
2023-02-20T09:38:43.904Z,27.48
2023-02-20T09:39:43.953Z,27.44
2023-02-20T09:40:44.021Z,27.41
2023-02-20T09:41:44.099Z,27.42
2023-02-20T09:42:44.364Z,27.38
2023-02-20T09:43:44.208Z,27.40
2023-02-20T09:44:44.694Z,27.36
2023-02-20T09:45:44.349Z,27.34
2023-02-20T09:46:44.384Z,27.30
2023-02-20T09:47:44.431Z,27.27
2023-02-20T09:48:44.465Z,27.21
2023-02-20T09:49:44.486Z,27.17
2023-02-20T09:50:44.500Z,27.17
2023-02-20T09:51:44.471Z,27.17
2023-02-20T09:52:44.507Z,27.17
2023-02-20T09:53:44.540Z,27.11
2023-02-20T09:54:45.403Z,27.18
2023-02-20T09:55:44.559Z,27.20
2023-02-20T09:56:44.646Z,27.23
2023-02-20T09:57:44.651Z,27.17
2023-02-20T09:58:44.696Z,27.17
2023-02-20T09:59:44.771Z,27.17
2023-02-20T10:00:44.791Z,27.14
2023-02-20T10:01:44.840Z,27.13
2023-02-20T10:02:45.012Z,27.13
2023-02-20T10:03:44.904Z,27.10
2023-02-20T10:04:59.929Z,27.10
2023-02-20T10:05:45.895Z,27.08
2023-02-20T10:06:44.871Z,27.06
2023-02-20T10:07:44.891Z,27.06
2023-02-20T10:08:44.872Z,27.03
2023-02-20T10:09:44.869Z,27.03
2023-02-20T10:10:44.857Z,27.04
2023-02-20T10:11:44.871Z,27.01
2023-02-20T10:12:44.844Z,26.99
2023-02-20T10:13:44.843Z,26.99
2023-02-20T10:14:44.892Z,26.96
2023-02-20T10:15:44.832Z,26.96
2023-02-20T10:16:44.904Z,26.97
2023-02-20T10:17:44.821Z,26.96
2023-02-20T10:18:44.801Z,26.96
2023-02-20T10:19:44.835Z,26.96
2023-02-20T10:20:44.836Z,26.94
2023-02-20T10:21:44.869Z,26.96
2023-02-20T10:22:44.830Z,26.96
2023-02-20T10:23:47.284Z,26.94
2023-02-20T10:24:44.849Z,26.94
2023-02-20T10:25:44.803Z,26.94
2023-02-20T10:26:44.824Z,26.91
2023-02-20T10:27:44.815Z,26.91
2023-02-20T10:28:44.856Z,26.91
2023-02-20T10:29:44.843Z,26.93
2023-02-20T10:30:44.806Z,26.93
2023-02-20T10:31:44.819Z,26.91
2023-02-20T10:32:44.760Z,26.94
2023-02-20T10:33:44.719Z,26.94
2023-02-20T10:34:44.742Z,26.93
2023-02-20T10:35:44.743Z,26.96
2023-02-20T10:36:44.721Z,26.96
2023-02-20T10:37:47.843Z,27.00
2023-02-20T10:38:44.689Z,27.00
2023-02-20T10:39:44.702Z,27.06
2023-02-20T10:40:44.698Z,27.10
2023-02-20T10:41:44.715Z,27.13
2023-02-20T10:42:44.666Z,27.18
2023-02-20T10:43:44.734Z,27.20
2023-02-20T10:44:51.781Z,27.21
2023-02-20T10:45:45.717Z,27.21
2023-02-20T10:46:49.399Z,27.23
2023-02-20T10:47:45.645Z,27.31
2023-02-20T10:48:44.626Z,27.34
2023-02-20T10:49:44.676Z,27.36
2023-02-20T10:50:44.723Z,27.41
2023-02-20T10:51:44.638Z,27.47
2023-02-20T10:52:44.663Z,27.51
2023-02-20T10:53:44.635Z,27.55
2023-02-20T10:54:45.290Z,27.57
2023-02-20T10:55:44.726Z,27.62
2023-02-20T10:56:44.689Z,27.71
2023-02-20T10:57:44.672Z,27.72
2023-02-20T10:58:45.688Z,27.78
2023-02-20T10:59:44.652Z,27.81
2023-02-20T11:00:44.812Z,27.81
2023-02-20T11:01:44.726Z,27.79
2023-02-20T11:02:44.629Z,27.87
2023-02-20T11:03:44.660Z,27.87
2023-02-20T11:04:44.643Z,27.92
2023-02-20T11:05:44.624Z,27.93
2023-02-20T11:06:45.654Z,27.95
2023-02-20T11:07:45.295Z,27.99
2023-02-20T11:08:44.628Z,28.02
2023-02-20T11:09:44.590Z,28.05
2023-02-20T11:10:44.753Z,28.06
2023-02-20T11:11:44.563Z,28.09
2023-02-20T11:12:44.529Z,28.12
2023-02-20T11:13:44.540Z,28.13
2023-02-20T11:14:44.539Z,28.15
2023-02-20T11:15:44.605Z,28.15
2023-02-20T11:16:44.503Z,28.19
2023-02-20T11:17:44.512Z,28.19
2023-02-20T11:18:44.492Z,28.23
2023-02-20T11:19:44.571Z,28.23
2023-02-20T11:20:44.554Z,28.22
2023-02-20T11:21:44.475Z,28.26
2023-02-20T11:22:44.455Z,28.27
2023-02-20T11:23:44.392Z,28.26
2023-02-20T11:24:44.411Z,28.30
2023-02-20T11:25:44.384Z,28.30
2023-02-20T11:26:45.244Z,28.30
2023-02-20T11:27:44.457Z,28.33
2023-02-20T11:28:44.409Z,28.32
2023-02-20T11:29:44.465Z,28.33
2023-02-20T11:30:44.587Z,28.35
2023-02-20T11:31:44.652Z,28.35
2023-02-20T11:32:44.577Z,28.36
2023-02-20T11:33:44.606Z,28.36
2023-02-20T11:34:44.676Z,28.38
2023-02-20T11:35:44.731Z,28.38
2023-02-20T11:36:45.234Z,28.39
2023-02-20T11:37:54.387Z,28.40
2023-02-20T11:38:45.828Z,28.42
2023-02-20T11:39:44.835Z,28.36
2023-02-20T11:40:44.821Z,28.36
2023-02-20T11:41:45.235Z,28.33
2023-02-20T11:42:44.899Z,28.32
2023-02-20T11:43:59.227Z,28.36
2023-02-20T11:44:45.835Z,28.35
2023-02-20T11:45:44.808Z,28.35
2023-02-20T11:46:45.239Z,28.32
2023-02-20T11:47:44.767Z,28.30
2023-02-20T11:48:44.776Z,28.30
2023-02-20T11:49:44.731Z,28.30
2023-02-20T11:50:44.745Z,28.29
2023-02-20T11:51:45.243Z,28.30
2023-02-20T11:52:44.714Z,28.27
2023-02-20T11:53:44.737Z,28.27
2023-02-20T11:54:44.699Z,28.30
2023-02-20T11:55:54.940Z,28.30
2023-02-20T11:56:45.758Z,28.29
2023-02-20T11:57:44.684Z,28.29
2023-02-20T11:58:44.717Z,28.30
2023-02-20T11:59:44.660Z,28.32
2023-02-20T12:00:44.672Z,28.35
2023-02-20T12:01:52.419Z,28.35
2023-02-20T12:02:45.750Z,28.33
2023-02-20T12:03:44.659Z,28.38
2023-02-20T12:04:44.664Z,28.39
2023-02-20T12:05:44.640Z,28.38
2023-02-20T12:06:44.632Z,28.35
2023-02-20T12:07:44.648Z,28.38
2023-02-20T12:08:44.618Z,28.35
2023-02-20T12:09:44.585Z,28.36
2023-02-20T12:10:44.595Z,28.35
2023-02-20T12:11:44.573Z,28.36
2023-02-20T12:12:44.579Z,28.32
2023-02-20T12:13:44.579Z,28.30
2023-02-20T12:14:44.545Z,28.27
2023-02-20T12:15:44.572Z,28.27
2023-02-20T12:16:45.259Z,28.24
2023-02-20T12:17:44.545Z,28.24
2023-02-20T12:18:44.511Z,28.23
2023-02-20T12:19:44.518Z,28.20
2023-02-20T12:20:44.530Z,28.19
2023-02-20T12:21:44.578Z,28.18
2023-02-20T12:22:44.760Z,28.19
2023-02-20T12:23:44.513Z,28.20
2023-02-20T12:24:44.531Z,28.22
2023-02-20T12:25:44.532Z,28.18
2023-02-20T12:26:44.583Z,28.18
2023-02-20T12:27:44.564Z,28.13
2023-02-20T12:28:44.528Z,28.08
2023-02-20T12:29:44.538Z,28.08
2023-02-20T12:30:44.526Z,28.03
2023-02-20T12:31:44.972Z,28.08
2023-02-20T12:32:44.755Z,28.05
2023-02-20T12:33:44.572Z,28.02
2023-02-20T12:34:44.552Z,28.03
2023-02-20T12:35:44.597Z,28.01
2023-02-20T12:36:44.617Z,28.01
2023-02-20T12:37:44.748Z,27.96
2023-02-20T12:38:44.634Z,27.98
2023-02-20T12:39:44.635Z,27.96
2023-02-20T12:40:44.646Z,27.93
2023-02-20T12:41:44.659Z,27.93
2023-02-20T12:42:44.643Z,27.92
2023-02-20T12:43:44.678Z,27.89
2023-02-20T12:44:44.685Z,27.87
2023-02-20T12:45:44.716Z,27.88
2023-02-20T12:46:44.794Z,27.85
2023-02-20T12:47:44.753Z,27.84
2023-02-20T12:48:44.807Z,27.85
2023-02-20T12:49:44.758Z,27.84
2023-02-20T12:50:44.814Z,27.81
2023-02-20T12:51:44.836Z,27.81
2023-02-20T12:52:44.889Z,27.81
2023-02-20T12:53:44.862Z,27.77
2023-02-20T12:54:44.894Z,27.77
2023-02-20T12:55:44.917Z,27.75
2023-02-20T12:56:44.927Z,27.78
2023-02-20T12:57:44.949Z,27.73
2023-02-20T12:58:44.998Z,27.75
2023-02-20T12:59:45.024Z,27.72
2023-02-20T13:00:45.089Z,27.72
2023-02-20T13:01:45.194Z,27.71
2023-02-20T13:02:45.060Z,27.68
2023-02-20T13:03:45.126Z,27.68
2023-02-20T13:04:45.140Z,27.68
2023-02-20T13:05:45.185Z,27.68
2023-02-20T13:06:45.188Z,27.69
2023-02-20T13:07:45.250Z,27.69
2023-02-20T13:08:45.240Z,27.65